sensor_id;sensor_type;location;lat;lon;timestamp;P1;durP1;ratioP1;P2;durP2;ratioP2
18997;SDS011;9632;51.018;4.284;2023-10-19T00:01:59;8.00;;;0.95;;
18997;SDS011;9632;51.018;4.284;2023-10-19T00:04:25;7.60;;;0.57;;
18997;SDS011;9632;51.018;4.284;2023-10-19T00:06:51;5.50;;;0.90;;
18997;SDS011;9632;51.018;4.284;2023-10-19T00:09:20;4.47;;;0.50;;
18997;SDS011;9632;51.018;4.284;2023-10-19T00:11:46;7.03;;;0.65;;
18997;SDS011;9632;51.018;4.284;2023-10-19T00:14:16;3.50;;;0.60;;
18997;SDS011;9632;51.018;4.284;2023-10-19T00:16:43;7.47;;;0.68;;
18997;SDS011;9632;51.018;4.284;2023-10-19T00:19:18;8.00;;;0.70;;
18997;SDS011;9632;51.018;4.284;2023-10-19T00:21:46;5.53;;;0.57;;
18997;SDS011;9632;51.018;4.284;2023-10-19T00:24:16;4.18;;;0.57;;
18997;SDS011;9632;51.018;4.284;2023-10-19T00:26:44;5.93;;;0.60;;
18997;SDS011;9632;51.018;4.284;2023-10-19T00:29:10;5.13;;;0.65;;
18997;SDS011;9632;51.018;4.284;2023-10-19T00:31:54;3.40;;;0.60;;
18997;SDS011;9632;51.018;4.284;2023-10-19T00:34:21;3.65;;;0.43;;
18997;SDS011;9632;51.018;4.284;2023-10-19T00:36:47;2.30;;;0.50;;
18997;SDS011;9632;51.018;4.284;2023-10-19T00:39:15;7.45;;;0.60;;
18997;SDS011;9632;51.018;4.284;2023-10-19T00:41:46;5.05;;;0.80;;
18997;SDS011;9632;51.018;4.284;2023-10-19T00:44:12;3.83;;;0.60;;
18997;SDS011;9632;51.018;4.284;2023-10-19T00:46:41;4.57;;;0.50;;
18997;SDS011;9632;51.018;4.284;2023-10-19T00:49:07;7.63;;;1.00;;
18997;SDS011;9632;51.018;4.284;2023-10-19T00:51:38;4.47;;;0.60;;
18997;SDS011;9632;51.018;4.284;2023-10-19T00:54:12;7.43;;;0.50;;
18997;SDS011;9632;51.018;4.284;2023-10-19T00:56:45;6.65;;;0.45;;
18997;SDS011;9632;51.018;4.284;2023-10-19T00:59:18;5.57;;;0.68;;
18997;SDS011;9632;51.018;4.284;2023-10-19T01:01:49;5.03;;;0.77;;
18997;SDS011;9632;51.018;4.284;2023-10-19T01:04:19;4.05;;;0.77;;
18997;SDS011;9632;51.018;4.284;2023-10-19T01:06:47;8.88;;;0.65;;
18997;SDS011;9632;51.018;4.284;2023-10-19T01:09:45;5.05;;;0.50;;
18997;SDS011;9632;51.018;4.284;2023-10-19T01:12:11;6.28;;;0.55;;
18997;SDS011;9632;51.018;4.284;2023-10-19T01:15:02;5.80;;;0.50;;
18997;SDS011;9632;51.018;4.284;2023-10-19T01:17:56;3.40;;;0.50;;
18997;SDS011;9632;51.018;4.284;2023-10-19T01:20:23;8.05;;;0.80;;
18997;SDS011;9632;51.018;4.284;2023-10-19T01:23:08;3.35;;;0.40;;
18997;SDS011;9632;51.018;4.284;2023-10-19T01:25:46;4.72;;;0.60;;
18997;SDS011;9632;51.018;4.284;2023-10-19T01:28:22;3.85;;;0.70;;
18997;SDS011;9632;51.018;4.284;2023-10-19T01:30:51;4.13;;;0.60;;
18997;SDS011;9632;51.018;4.284;2023-10-19T01:33:17;3.38;;;0.50;;
18997;SDS011;9632;51.018;4.284;2023-10-19T01:35:43;5.18;;;0.63;;
18997;SDS011;9632;51.018;4.284;2023-10-19T01:38:28;3.08;;;0.50;;
18997;SDS011;9632;51.018;4.284;2023-10-19T01:40:58;4.20;;;0.50;;
18997;SDS011;9632;51.018;4.284;2023-10-19T01:43:27;7.68;;;0.80;;
18997;SDS011;9632;51.018;4.284;2023-10-19T01:45:56;6.03;;;0.80;;
18997;SDS011;9632;51.018;4.284;2023-10-19T01:48:23;4.60;;;0.60;;
18997;SDS011;9632;51.018;4.284;2023-10-19T01:51:03;2.65;;;0.70;;
18997;SDS011;9632;51.018;4.284;2023-10-19T01:53:30;6.57;;;0.70;;
18997;SDS011;9632;51.018;4.284;2023-10-19T01:55:57;6.95;;;0.60;;
18997;SDS011;9632;51.018;4.284;2023-10-19T01:58:23;3.17;;;0.60;;
18997;SDS011;9632;51.018;4.284;2023-10-19T02:00:52;4.15;;;0.70;;
18997;SDS011;9632;51.018;4.284;2023-10-19T02:03:31;5.20;;;0.80;;
18997;SDS011;9632;51.018;4.284;2023-10-19T02:06:01;6.35;;;0.88;;
18997;SDS011;9632;51.018;4.284;2023-10-19T02:08:51;8.88;;;0.65;;
18997;SDS011;9632;51.018;4.284;2023-10-19T02:11:26;7.55;;;0.68;;
18997;SDS011;9632;51.018;4.284;2023-10-19T02:13:53;7.38;;;0.80;;
18997;SDS011;9632;51.018;4.284;2023-10-19T02:16:21;6.07;;;0.73;;
18997;SDS011;9632;51.018;4.284;2023-10-19T02:18:50;9.23;;;1.08;;
18997;SDS011;9632;51.018;4.284;2023-10-19T02:21:16;5.72;;;0.85;;
18997;SDS011;9632;51.018;4.284;2023-10-19T02:23:52;7.32;;;0.93;;
18997;SDS011;9632;51.018;4.284;2023-10-19T02:26:18;7.30;;;0.77;;
18997;SDS011;9632;51.018;4.284;2023-10-19T02:28:46;4.47;;;0.77;;
18997;SDS011;9632;51.018;4.284;2023-10-19T02:31:12;5.25;;;0.90;;
18997;SDS011;9632;51.018;4.284;2023-10-19T02:33:43;7.05;;;1.00;;
18997;SDS011;9632;51.018;4.284;2023-10-19T02:36:15;4.32;;;0.70;;
18997;SDS011;9632;51.018;4.284;2023-10-19T02:38:45;4.10;;;0.98;;
18997;SDS011;9632;51.018;4.284;2023-10-19T02:41:16;6.47;;;0.85;;
18997;SDS011;9632;51.018;4.284;2023-10-19T02:43:43;5.63;;;0.60;;
18997;SDS011;9632;51.018;4.284;2023-10-19T02:46:25;4.38;;;0.85;;
18997;SDS011;9632;51.018;4.284;2023-10-19T02:48:51;5.72;;;0.77;;
18997;SDS011;9632;51.018;4.284;2023-10-19T02:51:17;3.83;;;0.80;;
18997;SDS011;9632;51.018;4.284;2023-10-19T02:53:44;3.78;;;0.70;;
18997;SDS011;9632;51.018;4.284;2023-10-19T02:56:14;7.30;;;0.80;;
18997;SDS011;9632;51.018;4.284;2023-10-19T02:58:45;7.63;;;0.85;;
18997;SDS011;9632;51.018;4.284;2023-10-19T03:01:15;11.00;;;1.00;;
18997;SDS011;9632;51.018;4.284;2023-10-19T03:03:46;8.20;;;1.08;;
18997;SDS011;9632;51.018;4.284;2023-10-19T03:06:25;7.25;;;1.08;;
18997;SDS011;9632;51.018;4.284;2023-10-19T03:08:56;7.10;;;1.15;;
18997;SDS011;9632;51.018;4.284;2023-10-19T03:11:41;6.28;;;0.85;;
18997;SDS011;9632;51.018;4.284;2023-10-19T03:14:07;10.27;;;0.82;;
18997;SDS011;9632;51.018;4.284;2023-10-19T03:16:35;4.65;;;0.90;;
18997;SDS011;9632;51.018;4.284;2023-10-19T03:19:02;5.95;;;0.95;;
18997;SDS011;9632;51.018;4.284;2023-10-19T03:21:29;7.13;;;0.65;;
18997;SDS011;9632;51.018;4.284;2023-10-19T03:24:06;8.30;;;0.90;;
18997;SDS011;9632;51.018;4.284;2023-10-19T03:26:37;6.70;;;1.10;;
18997;SDS011;9632;51.018;4.284;2023-10-19T03:29:04;7.80;;;1.10;;
18997;SDS011;9632;51.018;4.284;2023-10-19T03:31:36;12.18;;;1.50;;
18997;SDS011;9632;51.018;4.284;2023-10-19T03:34:11;6.82;;;1.15;;
18997;SDS011;9632;51.018;4.284;2023-10-19T03:36:38;9.75;;;0.90;;
18997;SDS011;9632;51.018;4.284;2023-10-19T03:39:05;11.60;;;1.65;;
18997;SDS011;9632;51.018;4.284;2023-10-19T03:41:38;5.53;;;0.80;;
18997;SDS011;9632;51.018;4.284;2023-10-19T03:44:07;10.90;;;1.35;;
18997;SDS011;9632;51.018;4.284;2023-10-19T03:46:39;7.70;;;0.88;;
18997;SDS011;9632;51.018;4.284;2023-10-19T03:49:18;7.10;;;0.90;;
18997;SDS011;9632;51.018;4.284;2023-10-19T03:51:47;9.48;;;1.05;;
18997;SDS011;9632;51.018;4.284;2023-10-19T03:54:45;7.93;;;1.25;;
18997;SDS011;9632;51.018;4.284;2023-10-19T03:57:13;6.50;;;1.00;;
18997;SDS011;9632;51.018;4.284;2023-10-19T03:59:49;13.85;;;1.23;;
18997;SDS011;9632;51.018;4.284;2023-10-19T04:02:19;13.13;;;1.13;;
18997;SDS011;9632;51.018;4.284;2023-10-19T04:05:00;10.05;;;1.27;;
18997;SDS011;9632;51.018;4.284;2023-10-19T04:07:26;7.80;;;1.20;;
18997;SDS011;9632;51.018;4.284;2023-10-19T04:09:56;12.88;;;1.15;;
18997;SDS011;9632;51.018;4.284;2023-10-19T04:12:23;10.60;;;1.40;;
18997;SDS011;9632;51.018;4.284;2023-10-19T04:14:50;7.30;;;1.00;;
18997;SDS011;9632;51.018;4.284;2023-10-19T04:17:15;15.40;;;1.48;;
18997;SDS011;9632;51.018;4.284;2023-10-19T04:19:46;9.77;;;1.13;;
18997;SDS011;9632;51.018;4.284;2023-10-19T04:22:13;8.82;;;1.05;;
18997;SDS011;9632;51.018;4.284;2023-10-19T04:24:47;16.02;;;1.45;;
18997;SDS011;9632;51.018;4.284;2023-10-19T04:27:16;6.47;;;1.13;;
18997;SDS011;9632;51.018;4.284;2023-10-19T04:29:41;8.48;;;1.10;;
18997;SDS011;9632;51.018;4.284;2023-10-19T04:32:09;6.22;;;1.10;;
18997;SDS011;9632;51.018;4.284;2023-10-19T04:34:35;10.70;;;1.20;;
18997;SDS011;9632;51.018;4.284;2023-10-19T04:37:02;9.30;;;1.35;;
18997;SDS011;9632;51.018;4.284;2023-10-19T04:39:28;11.45;;;1.58;;
18997;SDS011;9632;51.018;4.284;2023-10-19T04:41:55;6.60;;;0.93;;
18997;SDS011;9632;51.018;4.284;2023-10-19T04:44:21;8.90;;;1.30;;
18997;SDS011;9632;51.018;4.284;2023-10-19T04:46:47;5.70;;;1.10;;
18997;SDS011;9632;51.018;4.284;2023-10-19T04:49:13;8.32;;;1.50;;
18997;SDS011;9632;51.018;4.284;2023-10-19T04:51:41;6.07;;;1.20;;
18997;SDS011;9632;51.018;4.284;2023-10-19T04:54:08;9.23;;;1.80;;
18997;SDS011;9632;51.018;4.284;2023-10-19T04:56:34;11.00;;;1.83;;
18997;SDS011;9632;51.018;4.284;2023-10-19T04:59:03;12.02;;;2.03;;
18997;SDS011;9632;51.018;4.284;2023-10-19T05:01:29;13.88;;;1.75;;
18997;SDS011;9632;51.018;4.284;2023-10-19T05:03:58;8.30;;;1.67;;
18997;SDS011;9632;51.018;4.284;2023-10-19T05:06:24;7.70;;;1.50;;
18997;SDS011;9632;51.018;4.284;2023-10-19T05:08:50;14.70;;;1.98;;
18997;SDS011;9632;51.018;4.284;2023-10-19T05:11:17;12.23;;;1.90;;
18997;SDS011;9632;51.018;4.284;2023-10-19T05:13:43;16.33;;;2.60;;
18997;SDS011;9632;51.018;4.284;2023-10-19T05:16:08;10.98;;;1.88;;
18997;SDS011;9632;51.018;4.284;2023-10-19T05:18:34;12.93;;;1.98;;
18997;SDS011;9632;51.018;4.284;2023-10-19T05:20:59;10.90;;;1.92;;
18997;SDS011;9632;51.018;4.284;2023-10-19T05:23:26;10.40;;;2.08;;
18997;SDS011;9632;51.018;4.284;2023-10-19T05:25:53;7.50;;;1.90;;
18997;SDS011;9632;51.018;4.284;2023-10-19T05:28:25;11.55;;;2.38;;
18997;SDS011;9632;51.018;4.284;2023-10-19T05:30:51;11.95;;;2.30;;
18997;SDS011;9632;51.018;4.284;2023-10-19T05:33:16;12.82;;;2.13;;
18997;SDS011;9632;51.018;4.284;2023-10-19T05:35:49;12.93;;;2.40;;
18997;SDS011;9632;51.018;4.284;2023-10-19T05:38:15;9.52;;;1.90;;
18997;SDS011;9632;51.018;4.284;2023-10-19T05:40:42;10.60;;;2.10;;
18997;SDS011;9632;51.018;4.284;2023-10-19T05:43:08;16.45;;;2.40;;
18997;SDS011;9632;51.018;4.284;2023-10-19T05:45:34;11.55;;;2.42;;
18997;SDS011;9632;51.018;4.284;2023-10-19T05:48:01;16.83;;;2.60;;
18997;SDS011;9632;51.018;4.284;2023-10-19T05:50:29;17.63;;;2.50;;
18997;SDS011;9632;51.018;4.284;2023-10-19T05:52:54;14.68;;;3.20;;
18997;SDS011;9632;51.018;4.284;2023-10-19T05:55:20;17.05;;;2.63;;
18997;SDS011;9632;51.018;4.284;2023-10-19T05:57:49;14.93;;;2.58;;
18997;SDS011;9632;51.018;4.284;2023-10-19T06:00:15;11.45;;;2.50;;
18997;SDS011;9632;51.018;4.284;2023-10-19T06:02:45;13.77;;;2.58;;
18997;SDS011;9632;51.018;4.284;2023-10-19T06:05:15;10.15;;;2.00;;
18997;SDS011;9632;51.018;4.284;2023-10-19T06:07:41;13.68;;;2.40;;
18997;SDS011;9632;51.018;4.284;2023-10-19T06:10:11;12.65;;;2.58;;
18997;SDS011;9632;51.018;4.284;2023-10-19T06:12:41;15.35;;;2.15;;
18997;SDS011;9632;51.018;4.284;2023-10-19T06:15:08;11.82;;;2.45;;
18997;SDS011;9632;51.018;4.284;2023-10-19T06:17:36;15.52;;;3.40;;
18997;SDS011;9632;51.018;4.284;2023-10-19T06:20:09;11.30;;;2.42;;
18997;SDS011;9632;51.018;4.284;2023-10-19T06:22:49;13.77;;;2.30;;
18997;SDS011;9632;51.018;4.284;2023-10-19T06:25:16;15.13;;;2.47;;
18997;SDS011;9632;51.018;4.284;2023-10-19T06:27:43;14.45;;;2.35;;
18997;SDS011;9632;51.018;4.284;2023-10-19T06:30:09;17.65;;;2.55;;
18997;SDS011;9632;51.018;4.284;2023-10-19T06:32:36;14.70;;;2.45;;
18997;SDS011;9632;51.018;4.284;2023-10-19T06:35:02;16.80;;;2.75;;
18997;SDS011;9632;51.018;4.284;2023-10-19T06:37:28;14.70;;;2.50;;
18997;SDS011;9632;51.018;4.284;2023-10-19T06:39:54;18.40;;;3.08;;
18997;SDS011;9632;51.018;4.284;2023-10-19T06:42:19;17.27;;;2.70;;
18997;SDS011;9632;51.018;4.284;2023-10-19T06:44:46;20.58;;;2.67;;
18997;SDS011;9632;51.018;4.284;2023-10-19T06:47:11;16.42;;;3.15;;
18997;SDS011;9632;51.018;4.284;2023-10-19T06:49:38;22.88;;;3.28;;
18997;SDS011;9632;51.018;4.284;2023-10-19T06:52:04;19.90;;;3.70;;
18997;SDS011;9632;51.018;4.284;2023-10-19T06:54:30;14.40;;;3.30;;
18997;SDS011;9632;51.018;4.284;2023-10-19T06:56:57;17.00;;;4.05;;
18997;SDS011;9632;51.018;4.284;2023-10-19T06:59:23;18.65;;;3.33;;
18997;SDS011;9632;51.018;4.284;2023-10-19T07:01:49;19.80;;;2.90;;
18997;SDS011;9632;51.018;4.284;2023-10-19T07:04:15;17.10;;;2.22;;
18997;SDS011;9632;51.018;4.284;2023-10-19T07:06:40;22.83;;;2.58;;
18997;SDS011;9632;51.018;4.284;2023-10-19T07:09:06;13.73;;;2.25;;
18997;SDS011;9632;51.018;4.284;2023-10-19T07:11:35;14.75;;;2.60;;
18997;SDS011;9632;51.018;4.284;2023-10-19T07:14:01;13.60;;;2.03;;
18997;SDS011;9632;51.018;4.284;2023-10-19T07:16:26;11.60;;;1.75;;
18997;SDS011;9632;51.018;4.284;2023-10-19T07:18:52;15.00;;;2.20;;
18997;SDS011;9632;51.018;4.284;2023-10-19T07:21:18;15.98;;;2.25;;
18997;SDS011;9632;51.018;4.284;2023-10-19T07:23:44;19.20;;;2.22;;
18997;SDS011;9632;51.018;4.284;2023-10-19T07:26:10;14.88;;;2.17;;
18997;SDS011;9632;51.018;4.284;2023-10-19T07:28:39;13.50;;;2.08;;
18997;SDS011;9632;51.018;4.284;2023-10-19T07:31:04;15.98;;;2.00;;
18997;SDS011;9632;51.018;4.284;2023-10-19T07:33:37;17.55;;;2.70;;
18997;SDS011;9632;51.018;4.284;2023-10-19T07:36:11;15.32;;;2.55;;
18997;SDS011;9632;51.018;4.284;2023-10-19T07:38:40;17.20;;;1.85;;
18997;SDS011;9632;51.018;4.284;2023-10-19T07:41:07;14.18;;;2.15;;
18997;SDS011;9632;51.018;4.284;2023-10-19T07:43:35;18.42;;;2.22;;
18997;SDS011;9632;51.018;4.284;2023-10-19T07:46:01;16.08;;;2.42;;
18997;SDS011;9632;51.018;4.284;2023-10-19T07:48:27;16.95;;;2.17;;
18997;SDS011;9632;51.018;4.284;2023-10-19T07:50:54;20.63;;;2.13;;
18997;SDS011;9632;51.018;4.284;2023-10-19T07:53:19;15.00;;;2.00;;
18997;SDS011;9632;51.018;4.284;2023-10-19T07:55:46;15.07;;;2.10;;
18997;SDS011;9632;51.018;4.284;2023-10-19T07:58:12;14.55;;;2.10;;
18997;SDS011;9632;51.018;4.284;2023-10-19T08:00:38;12.23;;;1.52;;
18997;SDS011;9632;51.018;4.284;2023-10-19T08:03:04;13.23;;;1.92;;
18997;SDS011;9632;51.018;4.284;2023-10-19T08:05:30;14.07;;;1.77;;
18997;SDS011;9632;51.018;4.284;2023-10-19T08:07:56;14.25;;;1.88;;
18997;SDS011;9632;51.018;4.284;2023-10-19T08:10:24;17.05;;;2.45;;
18997;SDS011;9632;51.018;4.284;2023-10-19T08:12:51;11.80;;;1.70;;
18997;SDS011;9632;51.018;4.284;2023-10-19T08:15:17;15.27;;;1.80;;
18997;SDS011;9632;51.018;4.284;2023-10-19T08:17:45;12.48;;;1.67;;
18997;SDS011;9632;51.018;4.284;2023-10-19T08:20:20;16.20;;;2.00;;
18997;SDS011;9632;51.018;4.284;2023-10-19T08:22:49;14.07;;;2.30;;
18997;SDS011;9632;51.018;4.284;2023-10-19T08:25:18;16.33;;;2.53;;
18997;SDS011;9632;51.018;4.284;2023-10-19T08:27:44;15.25;;;2.42;;
18997;SDS011;9632;51.018;4.284;2023-10-19T08:30:14;17.60;;;2.08;;
18997;SDS011;9632;51.018;4.284;2023-10-19T08:32:40;19.10;;;2.20;;
18997;SDS011;9632;51.018;4.284;2023-10-19T08:35:07;11.18;;;2.22;;
18997;SDS011;9632;51.018;4.284;2023-10-19T08:37:36;18.17;;;2.22;;
18997;SDS011;9632;51.018;4.284;2023-10-19T08:40:09;15.10;;;2.45;;
18997;SDS011;9632;51.018;4.284;2023-10-19T08:42:43;17.10;;;2.28;;
18997;SDS011;9632;51.018;4.284;2023-10-19T08:45:10;21.17;;;2.47;;
18997;SDS011;9632;51.018;4.284;2023-10-19T08:47:43;11.70;;;1.95;;
18997;SDS011;9632;51.018;4.284;2023-10-19T08:50:13;16.50;;;2.35;;
18997;SDS011;9632;51.018;4.284;2023-10-19T08:52:42;17.75;;;2.65;;
18997;SDS011;9632;51.018;4.284;2023-10-19T08:55:09;14.80;;;2.60;;
18997;SDS011;9632;51.018;4.284;2023-10-19T08:57:37;13.85;;;2.25;;
18997;SDS011;9632;51.018;4.284;2023-10-19T09:00:05;17.95;;;2.28;;
18997;SDS011;9632;51.018;4.284;2023-10-19T09:02:31;11.55;;;1.90;;
18997;SDS011;9632;51.018;4.284;2023-10-19T09:04:58;10.23;;;1.80;;
18997;SDS011;9632;51.018;4.284;2023-10-19T09:07:25;22.88;;;2.25;;
18997;SDS011;9632;51.018;4.284;2023-10-19T09:09:55;15.65;;;2.20;;
18997;SDS011;9632;51.018;4.284;2023-10-19T09:12:22;13.98;;;2.28;;
18997;SDS011;9632;51.018;4.284;2023-10-19T09:14:48;12.20;;;3.05;;
18997;SDS011;9632;51.018;4.284;2023-10-19T09:17:15;17.70;;;2.35;;
18997;SDS011;9632;51.018;4.284;2023-10-19T09:19:53;13.80;;;2.03;;
18997;SDS011;9632;51.018;4.284;2023-10-19T09:22:21;12.80;;;2.10;;
18997;SDS011;9632;51.018;4.284;2023-10-19T09:24:49;18.80;;;2.47;;
18997;SDS011;9632;51.018;4.284;2023-10-19T09:27:18;23.80;;;2.75;;
18997;SDS011;9632;51.018;4.284;2023-10-19T09:29:45;16.42;;;2.58;;
18997;SDS011;9632;51.018;4.284;2023-10-19T09:32:12;16.42;;;2.22;;
18997;SDS011;9632;51.018;4.284;2023-10-19T09:34:39;15.13;;;2.33;;
18997;SDS011;9632;51.018;4.284;2023-10-19T09:37:08;16.95;;;2.63;;
18997;SDS011;9632;51.018;4.284;2023-10-19T09:39:34;18.10;;;2.80;;
18997;SDS011;9632;51.018;4.284;2023-10-19T09:42:01;14.93;;;2.88;;
18997;SDS011;9632;51.018;4.284;2023-10-19T09:44:43;9.65;;;1.92;;
18997;SDS011;9632;51.018;4.284;2023-10-19T09:47:14;17.63;;;2.50;;
18997;SDS011;9632;51.018;4.284;2023-10-19T09:49:51;15.07;;;1.98;;
18997;SDS011;9632;51.018;4.284;2023-10-19T09:52:16;14.00;;;2.10;;
18997;SDS011;9632;51.018;4.284;2023-10-19T09:57:49;20.13;;;2.50;;
18997;SDS011;9632;51.018;4.284;2023-10-19T10:00:29;16.08;;;2.20;;
18997;SDS011;9632;51.018;4.284;2023-10-19T10:02:59;11.55;;;2.20;;
18997;SDS011;9632;51.018;4.284;2023-10-19T10:10:49;14.85;;;2.17;;
18997;SDS011;9632;51.018;4.284;2023-10-19T10:13:36;15.68;;;2.92;;
18997;SDS011;9632;51.018;4.284;2023-10-19T10:16:02;14.10;;;2.40;;
18997;SDS011;9632;51.018;4.284;2023-10-19T10:18:31;16.40;;;2.65;;
18997;SDS011;9632;51.018;4.284;2023-10-19T10:23:55;14.45;;;2.42;;
18997;SDS011;9632;51.018;4.284;2023-10-19T10:26:23;18.73;;;3.13;;
18997;SDS011;9632;51.018;4.284;2023-10-19T10:31:47;17.98;;;2.55;;
18997;SDS011;9632;51.018;4.284;2023-10-19T10:37:14;15.07;;;2.50;;
18997;SDS011;9632;51.018;4.284;2023-10-19T10:39:39;14.30;;;2.10;;
18997;SDS011;9632;51.018;4.284;2023-10-19T10:42:07;17.90;;;2.85;;
18997;SDS011;9632;51.018;4.284;2023-10-19T10:47:26;11.52;;;1.92;;
18997;SDS011;9632;51.018;4.284;2023-10-19T10:49:58;15.40;;;2.45;;
18997;SDS011;9632;51.018;4.284;2023-10-19T10:54:52;16.15;;;2.88;;
18997;SDS011;9632;51.018;4.284;2023-10-19T10:57:18;14.15;;;2.40;;
18997;SDS011;9632;51.018;4.284;2023-10-19T10:59:45;20.90;;;2.80;;
18997;SDS011;9632;51.018;4.284;2023-10-19T11:02:18;12.75;;;2.10;;
18997;SDS011;9632;51.018;4.284;2023-10-19T11:04:45;12.05;;;2.35;;
18997;SDS011;9632;51.018;4.284;2023-10-19T11:07:20;13.93;;;2.13;;
18997;SDS011;9632;51.018;4.284;2023-10-19T11:09:46;15.60;;;2.67;;
18997;SDS011;9632;51.018;4.284;2023-10-19T11:12:12;14.13;;;2.47;;
18997;SDS011;9632;51.018;4.284;2023-10-19T11:15:00;18.05;;;3.00;;
18997;SDS011;9632;51.018;4.284;2023-10-19T11:17:25;17.02;;;2.95;;
18997;SDS011;9632;51.018;4.284;2023-10-19T11:19:56;14.18;;;2.63;;
18997;SDS011;9632;51.018;4.284;2023-10-19T11:22:22;18.38;;;2.35;;
18997;SDS011;9632;51.018;4.284;2023-10-19T11:24:54;12.90;;;2.58;;
18997;SDS011;9632;51.018;4.284;2023-10-19T11:27:27;12.23;;;2.50;;
18997;SDS011;9632;51.018;4.284;2023-10-19T11:29:54;21.33;;;2.72;;
18997;SDS011;9632;51.018;4.284;2023-10-19T11:32:23;8.32;;;2.10;;
18997;SDS011;9632;51.018;4.284;2023-10-19T11:34:55;17.85;;;3.05;;
18997;SDS011;9632;51.018;4.284;2023-10-19T11:37:21;12.70;;;2.58;;
18997;SDS011;9632;51.018;4.284;2023-10-19T11:39:47;14.88;;;1.90;;
18997;SDS011;9632;51.018;4.284;2023-10-19T11:42:15;17.85;;;2.22;;
18997;SDS011;9632;51.018;4.284;2023-10-19T11:44:43;15.02;;;2.50;;
18997;SDS011;9632;51.018;4.284;2023-10-19T11:47:10;12.43;;;2.47;;
18997;SDS011;9632;51.018;4.284;2023-10-19T11:49:35;13.05;;;2.30;;
18997;SDS011;9632;51.018;4.284;2023-10-19T11:52:04;15.68;;;2.05;;
18997;SDS011;9632;51.018;4.284;2023-10-19T11:54:33;13.15;;;2.17;;
18997;SDS011;9632;51.018;4.284;2023-10-19T11:57:00;17.88;;;2.67;;
18997;SDS011;9632;51.018;4.284;2023-10-19T11:59:25;16.27;;;2.80;;
18997;SDS011;9632;51.018;4.284;2023-10-19T12:01:51;17.38;;;2.30;;
18997;SDS011;9632;51.018;4.284;2023-10-19T12:04:17;22.50;;;3.17;;
18997;SDS011;9632;51.018;4.284;2023-10-19T12:06:44;13.85;;;2.65;;
18997;SDS011;9632;51.018;4.284;2023-10-19T12:09:11;14.95;;;2.50;;
18997;SDS011;9632;51.018;4.284;2023-10-19T12:11:40;17.25;;;2.40;;
18997;SDS011;9632;51.018;4.284;2023-10-19T12:14:06;11.45;;;1.95;;
18997;SDS011;9632;51.018;4.284;2023-10-19T12:16:36;10.18;;;1.90;;
18997;SDS011;9632;51.018;4.284;2023-10-19T12:19:04;12.07;;;2.65;;
18997;SDS011;9632;51.018;4.284;2023-10-19T12:21:30;16.40;;;3.53;;
18997;SDS011;9632;51.018;4.284;2023-10-19T12:23:59;16.67;;;3.00;;
18997;SDS011;9632;51.018;4.284;2023-10-19T12:26:26;16.88;;;3.15;;
18997;SDS011;9632;51.018;4.284;2023-10-19T12:28:52;12.52;;;2.75;;
18997;SDS011;9632;51.018;4.284;2023-10-19T12:31:17;16.92;;;3.28;;
18997;SDS011;9632;51.018;4.284;2023-10-19T12:33:44;12.20;;;1.92;;
18997;SDS011;9632;51.018;4.284;2023-10-19T12:36:10;16.25;;;2.60;;
18997;SDS011;9632;51.018;4.284;2023-10-19T12:38:51;12.25;;;2.50;;
18997;SDS011;9632;51.018;4.284;2023-10-19T12:41:18;10.68;;;2.20;;
18997;SDS011;9632;51.018;4.284;2023-10-19T12:43:44;7.00;;;1.85;;
18997;SDS011;9632;51.018;4.284;2023-10-19T12:46:13;10.25;;;2.70;;
18997;SDS011;9632;51.018;4.284;2023-10-19T12:48:42;19.75;;;4.53;;
18997;SDS011;9632;51.018;4.284;2023-10-19T12:51:08;13.18;;;2.92;;
18997;SDS011;9632;51.018;4.284;2023-10-19T12:53:36;10.05;;;2.05;;
18997;SDS011;9632;51.018;4.284;2023-10-19T12:56:05;8.40;;;1.95;;
18997;SDS011;9632;51.018;4.284;2023-10-19T12:58:35;10.18;;;1.85;;
18997;SDS011;9632;51.018;4.284;2023-10-19T13:01:02;6.82;;;1.50;;
18997;SDS011;9632;51.018;4.284;2023-10-19T13:03:30;4.97;;;1.33;;
18997;SDS011;9632;51.018;4.284;2023-10-19T13:06:01;6.70;;;0.93;;
18997;SDS011;9632;51.018;4.284;2023-10-19T13:08:30;7.53;;;1.20;;
18997;SDS011;9632;51.018;4.284;2023-10-19T13:10:55;6.15;;;1.20;;
18997;SDS011;9632;51.018;4.284;2023-10-19T13:13:21;6.45;;;1.17;;
18997;SDS011;9632;51.018;4.284;2023-10-19T13:15:49;7.15;;;1.23;;
18997;SDS011;9632;51.018;4.284;2023-10-19T13:18:15;4.85;;;1.10;;
18997;SDS011;9632;51.018;4.284;2023-10-19T13:21:07;4.00;;;1.02;;
18997;SDS011;9632;51.018;4.284;2023-10-19T13:23:41;3.17;;;0.98;;
18997;SDS011;9632;51.018;4.284;2023-10-19T13:26:09;4.80;;;1.00;;
18997;SDS011;9632;51.018;4.284;2023-10-19T13:28:41;4.80;;;0.90;;
18997;SDS011;9632;51.018;4.284;2023-10-19T13:31:07;4.10;;;0.98;;
18997;SDS011;9632;51.018;4.284;2023-10-19T13:33:38;7.18;;;1.05;;
18997;SDS011;9632;51.018;4.284;2023-10-19T13:36:05;5.97;;;0.82;;
18997;SDS011;9632;51.018;4.284;2023-10-19T13:38:31;3.72;;;1.40;;
18997;SDS011;9632;51.018;4.284;2023-10-19T13:40:57;6.47;;;1.23;;
18997;SDS011;9632;51.018;4.284;2023-10-19T13:43:23;3.40;;;0.85;;
18997;SDS011;9632;51.018;4.284;2023-10-19T13:45:49;2.35;;;0.68;;
18997;SDS011;9632;51.018;4.284;2023-10-19T13:48:18;5.82;;;0.80;;
18997;SDS011;9632;51.018;4.284;2023-10-19T13:50:45;3.38;;;0.68;;
18997;SDS011;9632;51.018;4.284;2023-10-19T13:53:17;4.72;;;0.90;;
18997;SDS011;9632;51.018;4.284;2023-10-19T13:55:43;2.90;;;0.70;;
18997;SDS011;9632;51.018;4.284;2023-10-19T13:58:09;6.68;;;0.80;;
18997;SDS011;9632;51.018;4.284;2023-10-19T14:00:36;6.53;;;0.90;;
18997;SDS011;9632;51.018;4.284;2023-10-19T14:03:04;3.50;;;0.98;;
18997;SDS011;9632;51.018;4.284;2023-10-19T14:05:41;5.63;;;1.25;;
18997;SDS011;9632;51.018;4.284;2023-10-19T14:08:13;7.45;;;0.95;;
18997;SDS011;9632;51.018;4.284;2023-10-19T14:10:41;4.57;;;0.90;;
18997;SDS011;9632;51.018;4.284;2023-10-19T14:13:10;6.95;;;1.80;;
18997;SDS011;9632;51.018;4.284;2023-10-19T14:15:42;6.05;;;0.80;;
18997;SDS011;9632;51.018;4.284;2023-10-19T14:18:08;4.65;;;0.88;;
18997;SDS011;9632;51.018;4.284;2023-10-19T14:20:35;5.60;;;1.13;;
18997;SDS011;9632;51.018;4.284;2023-10-19T14:23:04;4.40;;;0.80;;
18997;SDS011;9632;51.018;4.284;2023-10-19T14:25:30;4.10;;;1.10;;
18997;SDS011;9632;51.018;4.284;2023-10-19T14:27:55;3.97;;;0.93;;
18997;SDS011;9632;51.018;4.284;2023-10-19T14:30:25;7.93;;;1.30;;
18997;SDS011;9632;51.018;4.284;2023-10-19T14:32:56;4.50;;;0.98;;
18997;SDS011;9632;51.018;4.284;2023-10-19T14:35:23;3.58;;;0.70;;
18997;SDS011;9632;51.018;4.284;2023-10-19T14:37:53;5.15;;;1.17;;
18997;SDS011;9632;51.018;4.284;2023-10-19T14:40:21;2.80;;;0.50;;
18997;SDS011;9632;51.018;4.284;2023-10-19T14:42:52;5.47;;;0.77;;
18997;SDS011;9632;51.018;4.284;2023-10-19T14:45:25;6.15;;;1.13;;
18997;SDS011;9632;51.018;4.284;2023-10-19T14:47:53;3.22;;;0.70;;
18997;SDS011;9632;51.018;4.284;2023-10-19T14:50:20;3.00;;;0.80;;
18997;SDS011;9632;51.018;4.284;2023-10-19T14:52:48;3.03;;;0.88;;
18997;SDS011;9632;51.018;4.284;2023-10-19T14:55:15;2.45;;;0.80;;
18997;SDS011;9632;51.018;4.284;2023-10-19T14:57:42;5.60;;;0.60;;
18997;SDS011;9632;51.018;4.284;2023-10-19T15:00:10;7.45;;;1.23;;
18997;SDS011;9632;51.018;4.284;2023-10-19T15:02:50;6.72;;;0.98;;
18997;SDS011;9632;51.018;4.284;2023-10-19T15:05:18;2.28;;;0.63;;
18997;SDS011;9632;51.018;4.284;2023-10-19T15:07:45;2.53;;;0.70;;
18997;SDS011;9632;51.018;4.284;2023-10-19T15:10:16;3.42;;;0.50;;
18997;SDS011;9632;51.018;4.284;2023-10-19T15:12:53;3.55;;;0.90;;
18997;SDS011;9632;51.018;4.284;2023-10-19T15:15:19;7.20;;;1.63;;
18997;SDS011;9632;51.018;4.284;2023-10-19T15:17:46;6.07;;;1.42;;
18997;SDS011;9632;51.018;4.284;2023-10-19T15:20:13;6.43;;;1.58;;
18997;SDS011;9632;51.018;4.284;2023-10-19T15:22:40;6.43;;;1.45;;
18997;SDS011;9632;51.018;4.284;2023-10-19T15:25:06;19.45;;;11.68;;
18997;SDS011;9632;51.018;4.284;2023-10-19T15:27:33;4.97;;;2.13;;